createdAt,value
2022-10-11T00:01:51.897Z,2.13
2022-10-11T00:04:19.330Z,2.00
2022-10-11T00:06:47.321Z,2.83
2022-10-11T00:09:15.955Z,2.45
2022-10-11T00:11:43.487Z,2.10
2022-10-11T00:14:12.254Z,2.20
2022-10-11T00:16:42.120Z,2.45
2022-10-11T00:19:09.538Z,2.40
2022-10-11T00:21:37.590Z,2.30
2022-10-11T00:24:05.785Z,2.35
2022-10-11T00:26:33.232Z,2.30
2022-10-11T00:29:00.687Z,1.88
2022-10-11T00:31:34.720Z,1.90
2022-10-11T00:34:03.030Z,2.10
2022-10-11T00:36:30.469Z,1.85
2022-10-11T00:38:57.890Z,2.00
2022-10-11T00:41:25.329Z,1.92
2022-10-11T00:44:09.011Z,2.13
2022-10-11T00:46:37.786Z,2.00
2022-10-11T00:49:06.742Z,2.13
2022-10-11T00:51:41.234Z,2.03
2022-10-11T00:54:08.897Z,2.53
2022-10-11T00:56:37.359Z,2.30
2022-10-11T00:59:06.867Z,1.80
2022-10-11T01:01:34.444Z,2.30
2022-10-11T01:04:03.483Z,2.08
2022-10-11T01:06:30.939Z,1.70
2022-10-11T01:08:58.379Z,1.85
2022-10-11T01:11:26.654Z,2.17
2022-10-11T01:14:09.203Z,2.00
2022-10-11T01:16:37.377Z,1.98
2022-10-11T01:19:11.286Z,1.92
2022-10-11T01:21:40.642Z,1.98
2022-10-11T01:24:33.903Z,2.28
2022-10-11T01:27:25.443Z,2.00
2022-10-11T01:29:57.010Z,2.13
2022-10-11T01:32:28.293Z,1.95
2022-10-11T01:34:56.983Z,1.80
2022-10-11T01:37:26.784Z,2.08
2022-10-11T01:39:57.002Z,2.00
2022-10-11T01:44:51.747Z,1.52
2022-10-11T01:47:20.386Z,1.83
2022-10-11T01:49:55.463Z,1.63
2022-10-11T01:52:22.907Z,2.00
2022-10-11T01:55:09.230Z,1.70
2022-10-11T01:57:57.670Z,1.73
2022-10-11T02:00:25.823Z,1.70
2022-10-11T02:03:00.395Z,1.75
2022-10-11T02:05:31.052Z,1.55
2022-10-11T02:08:00.602Z,1.75
2022-10-11T02:10:31.566Z,1.27
2022-10-11T02:13:01.334Z,1.88
2022-10-11T02:15:29.458Z,1.63
2022-10-11T02:17:57.841Z,1.50
2022-10-11T02:20:26.220Z,1.60
2022-10-11T02:22:57.645Z,1.50
2022-10-11T02:25:25.927Z,1.70
2022-10-11T02:27:54.785Z,1.70
2022-10-11T02:30:22.268Z,1.50
2022-10-11T02:32:49.696Z,1.67
2022-10-11T02:35:17.149Z,1.52
2022-10-11T02:37:47.526Z,1.48
2022-10-11T02:40:17.350Z,1.50
2022-10-11T02:42:46.679Z,1.75
2022-10-11T02:45:15.706Z,1.60
2022-10-11T02:47:43.165Z,1.75
2022-10-11T02:50:11.750Z,1.85
2022-10-11T02:52:39.209Z,1.63
2022-10-11T02:55:07.787Z,1.50
2022-10-11T02:57:36.582Z,1.33
2022-10-11T03:00:04.506Z,1.77
2022-10-11T03:02:31.941Z,1.75
2022-10-11T03:04:59.697Z,1.60
2022-10-11T03:07:27.129Z,1.52
2022-10-11T03:09:54.572Z,1.23
2022-10-11T03:12:22.001Z,1.70
2022-10-11T03:14:50.771Z,1.45
2022-10-11T03:17:35.654Z,1.40
2022-10-11T03:20:04.704Z,1.30
2022-10-11T03:22:32.154Z,1.60
2022-10-11T03:25:03.595Z,1.27
2022-10-11T03:27:31.720Z,1.42
2022-10-11T03:30:00.586Z,1.65
2022-10-11T03:32:28.156Z,1.45
2022-10-11T03:34:55.593Z,1.80
2022-10-11T03:37:23.039Z,1.65
2022-10-11T03:39:50.525Z,1.50
2022-10-11T03:42:17.985Z,1.80
2022-10-11T03:44:45.431Z,1.40
2022-10-11T03:47:14.215Z,1.77
2022-10-11T03:49:43.799Z,1.58
2022-10-11T03:52:11.478Z,1.52
2022-10-11T03:54:39.082Z,1.48
2022-10-11T03:57:07.052Z,1.73
2022-10-11T03:59:34.480Z,1.50
2022-10-11T04:02:02.022Z,1.58
2022-10-11T04:04:30.842Z,1.50
2022-10-11T04:06:58.285Z,1.73
2022-10-11T04:09:25.724Z,1.50
2022-10-11T04:11:53.194Z,2.00
2022-10-11T04:14:20.636Z,1.48
2022-10-11T04:16:48.068Z,1.65
2022-10-11T04:19:15.514Z,1.75
2022-10-11T04:21:44.289Z,1.58
2022-10-11T04:24:11.975Z,1.70
2022-10-11T04:26:39.482Z,1.50
2022-10-11T04:29:06.933Z,1.50
2022-10-11T04:31:34.388Z,1.75
2022-10-11T04:34:01.979Z,1.70
2022-10-11T04:36:30.078Z,1.73
2022-10-11T04:38:58.829Z,1.88
2022-10-11T04:41:26.292Z,2.45
2022-10-11T04:43:53.745Z,2.30
2022-10-11T04:46:21.456Z,2.30
2022-10-11T04:48:48.905Z,2.67
2022-10-11T04:51:16.374Z,3.00
2022-10-11T04:53:43.810Z,3.00
2022-10-11T04:56:12.598Z,3.20
2022-10-11T04:58:41.326Z,3.00
2022-10-11T05:01:08.802Z,2.63
2022-10-11T05:03:36.422Z,3.53
2022-10-11T05:06:05.892Z,2.88
2022-10-11T05:08:33.853Z,3.10
2022-10-11T05:11:02.130Z,3.00
2022-10-11T05:13:31.061Z,2.78
2022-10-11T05:15:58.748Z,2.50
2022-10-11T05:18:26.265Z,2.70
2022-10-11T05:20:59.697Z,2.60
2022-10-11T05:23:27.169Z,2.58
2022-10-11T05:25:54.636Z,2.20
2022-10-11T05:28:22.107Z,2.58
2022-10-11T05:30:50.881Z,2.42
2022-10-11T05:33:18.322Z,3.03
2022-10-11T05:35:45.787Z,2.78
2022-10-11T05:38:13.264Z,2.60
2022-10-11T05:40:40.919Z,2.45
2022-10-11T05:43:08.467Z,2.40
2022-10-11T05:45:36.816Z,2.17
2022-10-11T05:48:05.919Z,2.40
2022-10-11T05:50:33.389Z,2.75
2022-10-11T05:53:00.888Z,2.17
2022-10-11T05:55:28.372Z,2.28
2022-10-11T05:57:55.972Z,3.53
2022-10-11T06:00:23.538Z,3.22
2022-10-11T06:02:50.994Z,3.00
2022-10-11T06:05:19.773Z,3.47
2022-10-11T06:07:47.233Z,3.50
2022-10-11T06:10:14.663Z,3.75
2022-10-11T06:12:42.122Z,6.20
2022-10-11T06:15:10.796Z,5.55
2022-10-11T06:17:38.284Z,6.68
2022-10-11T06:20:06.587Z,7.10
2022-10-11T06:22:35.376Z,6.60
2022-10-11T06:25:02.937Z,5.93
2022-10-11T06:27:30.384Z,5.88
2022-10-11T06:29:57.822Z,8.75
2022-10-11T06:32:25.279Z,7.78
2022-10-11T06:34:52.735Z,7.88
2022-10-11T06:37:20.412Z,9.50
2022-10-11T06:39:49.859Z,10.35
2022-10-11T06:42:17.430Z,12.38
2022-10-11T06:44:44.862Z,10.45
2022-10-11T06:47:12.295Z,7.90
2022-10-11T06:49:39.739Z,7.55
2022-10-11T06:52:07.197Z,7.22
2022-10-11T06:54:34.634Z,6.82
2022-10-11T06:57:03.409Z,7.25
2022-10-11T06:59:30.839Z,7.60
2022-10-11T07:01:58.283Z,6.90
2022-10-11T07:04:25.699Z,7.07
2022-10-11T07:06:53.255Z,6.53
2022-10-11T07:09:20.687Z,6.38
2022-10-11T07:11:48.829Z,5.88
2022-10-11T07:14:17.577Z,6.82
2022-10-11T07:16:45.012Z,9.38
2022-10-11T07:19:12.439Z,36.20
2022-10-11T07:21:39.894Z,33.95
2022-10-11T07:24:07.748Z,23.30
2022-10-11T07:26:38.650Z,21.73
2022-10-11T07:29:06.865Z,20.33
2022-10-11T07:31:38.845Z,20.05
2022-10-11T07:34:06.277Z,18.73
2022-10-11T07:36:33.714Z,18.05
2022-10-11T07:39:01.195Z,16.80
2022-10-11T07:41:28.655Z,16.75
2022-10-11T07:43:56.251Z,15.55
2022-10-11T07:46:23.772Z,14.43
2022-10-11T07:48:52.748Z,13.65
2022-10-11T07:51:21.251Z,13.38
2022-10-11T07:53:49.603Z,13.18
2022-10-11T07:56:18.379Z,13.38
2022-10-11T07:58:45.894Z,11.93
2022-10-11T08:01:14.425Z,12.88
2022-10-11T08:03:42.247Z,12.70
2022-10-11T08:06:12.385Z,10.40
2022-10-11T08:11:07.439Z,8.90
2022-10-11T08:13:34.955Z,9.38
2022-10-11T08:16:02.790Z,8.63
2022-10-11T08:18:30.974Z,8.63
2022-10-11T08:20:58.438Z,8.02
2022-10-11T08:23:27.254Z,8.90
2022-10-11T08:25:57.282Z,8.18
2022-10-11T08:28:24.761Z,6.55
2022-10-11T08:30:54.723Z,7.72
2022-10-11T08:33:22.595Z,6.20
2022-10-11T08:35:50.293Z,6.50
2022-10-11T08:38:17.893Z,6.38
2022-10-11T08:40:50.630Z,5.50
2022-10-11T08:43:25.865Z,5.93
2022-10-11T08:45:54.425Z,5.70
2022-10-11T08:48:32.957Z,6.10
2022-10-11T08:51:00.400Z,6.10
2022-10-11T08:53:29.303Z,5.90
2022-10-11T08:55:58.104Z,6.90
2022-10-11T08:58:31.585Z,6.97
2022-10-11T09:00:59.047Z,7.07
2022-10-11T09:03:30.635Z,7.22
2022-10-11T09:06:04.405Z,6.93
2022-10-11T09:08:36.318Z,6.75
2022-10-11T09:11:07.481Z,6.03
2022-10-11T09:13:43.710Z,6.50
2022-10-11T09:16:16.022Z,6.47
2022-10-11T09:18:49.872Z,6.13
2022-10-11T09:21:21.379Z,5.90
2022-10-11T09:24:04.209Z,5.63
2022-10-11T09:26:35.773Z,6.15
2022-10-11T09:29:06.867Z,5.60
2022-10-11T09:31:34.632Z,5.75
2022-10-11T09:34:06.584Z,6.22
2022-10-11T09:36:37.071Z,5.30
2022-10-11T09:39:08.214Z,5.50
2022-10-11T09:41:39.685Z,5.40
2022-10-11T09:44:07.222Z,5.00
2022-10-11T09:46:37.108Z,5.43
2022-10-11T09:49:05.087Z,5.25
2022-10-11T09:51:32.610Z,4.60
2022-10-11T09:54:00.806Z,5.13
2022-10-11T09:56:28.959Z,4.57
2022-10-11T09:59:19.326Z,5.18
2022-10-11T10:01:46.807Z,5.90
2022-10-11T10:04:16.808Z,5.80
2022-10-11T10:06:44.256Z,5.68
2022-10-11T10:11:30.860Z,4.85
2022-10-11T10:13:58.300Z,5.68
2022-10-11T10:16:29.410Z,5.15
2022-10-11T10:18:57.738Z,5.00
2022-10-11T10:21:28.097Z,4.88
2022-10-11T10:23:55.662Z,5.35
2022-10-11T10:26:23.886Z,5.07
2022-10-11T10:28:59.601Z,5.03
2022-10-11T10:31:40.181Z,4.63
2022-10-11T10:34:17.682Z,4.35
2022-10-11T10:36:46.810Z,4.60
2022-10-11T10:39:16.554Z,4.45
2022-10-11T10:41:44.015Z,4.65
2022-10-11T10:44:11.454Z,4.43
2022-10-11T10:46:49.788Z,4.28
2022-10-11T10:49:53.067Z,4.15
2022-10-11T10:54:51.680Z,4.47
2022-10-11T10:57:21.365Z,4.50
2022-10-11T10:59:55.559Z,4.60
2022-10-11T11:02:40.302Z,4.50
2022-10-11T11:05:18.697Z,4.22
2022-10-11T11:07:47.922Z,21.48
2022-10-11T11:10:17.446Z,13.07
2022-10-11T11:12:46.911Z,9.48
2022-10-11T11:15:16.653Z,6.40
2022-10-11T11:17:52.606Z,48.22
2022-10-11T11:20:28.784Z,17.13
2022-10-11T11:22:59.344Z,7.88
2022-10-11T11:25:31.755Z,7.05
2022-10-11T11:28:09.273Z,4.03
2022-10-11T11:30:40.944Z,3.60
2022-10-11T11:33:13.124Z,3.67
2022-10-11T11:35:42.628Z,3.28
2022-10-11T11:38:12.482Z,2.60
2022-10-11T11:40:40.575Z,2.70
2022-10-11T11:43:08.813Z,2.88
2022-10-11T11:45:42.498Z,3.30
2022-10-11T11:48:14.955Z,3.22
2022-10-11T11:50:44.892Z,6.75
2022-10-11T11:53:14.672Z,7.38
2022-10-11T11:55:44.293Z,9.65
2022-10-11T11:58:25.828Z,10.95
2022-10-11T12:00:56.446Z,17.10
2022-10-11T12:03:27.702Z,16.48
2022-10-11T12:06:20.781Z,14.52
2022-10-11T12:08:49.062Z,16.25
2022-10-11T12:11:20.417Z,16.08
2022-10-11T12:13:47.971Z,14.80
2022-10-11T12:16:16.204Z,14.77
2022-10-11T12:18:53.273Z,15.00
2022-10-11T12:21:23.235Z,14.90
2022-10-11T12:23:51.343Z,14.38
2022-10-11T12:26:39.446Z,14.15
2022-10-11T12:29:42.467Z,12.45
2022-10-11T12:32:49.731Z,11.52
2022-10-11T12:36:05.597Z,10.13
2022-10-11T12:38:39.591Z,8.73
2022-10-11T12:41:41.125Z,8.20
2022-10-11T12:44:08.940Z,6.45
2022-10-11T12:46:41.327Z,8.15
2022-10-11T12:49:22.206Z,3.65
2022-10-11T12:51:53.709Z,3.72
2022-10-11T12:54:45.066Z,3.08
2022-10-11T12:57:49.861Z,3.47
2022-10-11T13:00:20.567Z,3.28
2022-10-11T13:02:48.251Z,3.13
2022-10-11T13:05:22.050Z,3.22
2022-10-11T13:07:49.781Z,3.60
2022-10-11T13:10:20.950Z,3.88
2022-10-11T13:12:48.506Z,3.28
2022-10-11T13:15:16.599Z,2.90
2022-10-11T13:17:44.060Z,3.35
2022-10-11T13:20:17.926Z,3.85
2022-10-11T13:22:45.943Z,3.47
2022-10-11T13:25:16.297Z,2.38
2022-10-11T13:27:45.138Z,2.80
2022-10-11T13:30:17.157Z,2.50
2022-10-11T13:32:44.605Z,2.53
2022-10-11T13:35:19.782Z,2.58
2022-10-11T13:37:49.887Z,2.55
2022-10-11T13:40:18.274Z,2.40
2022-10-11T13:42:48.413Z,2.65
2022-10-11T13:47:43.746Z,2.60
2022-10-11T13:50:19.413Z,2.78
2022-10-11T13:52:55.286Z,2.83
2022-10-11T13:55:33.445Z,2.70
2022-10-11T13:58:03.396Z,2.38
2022-10-11T14:00:33.085Z,3.03
2022-10-11T14:03:02.025Z,2.80
2022-10-11T14:05:31.992Z,2.95
2022-10-11T14:08:00.716Z,2.25
2022-10-11T14:10:28.161Z,2.28
2022-10-11T14:13:00.348Z,2.22
2022-10-11T14:15:30.785Z,3.10
2022-10-11T14:17:58.536Z,4.93
2022-10-11T14:20:33.216Z,17.33
2022-10-11T14:23:00.868Z,41.03
2022-10-11T14:25:28.314Z,40.90
2022-10-11T14:27:55.765Z,49.08
2022-10-11T14:30:26.246Z,50.63
2022-10-11T14:32:58.554Z,51.72
2022-10-11T14:35:26.975Z,48.88
2022-10-11T14:37:54.590Z,47.75
2022-10-11T14:40:23.207Z,48.65
2022-10-11T14:42:50.813Z,45.75
2022-10-11T14:45:18.608Z,42.70
2022-10-11T14:47:46.099Z,42.28
2022-10-11T14:50:29.076Z,41.83
2022-10-11T14:52:56.788Z,38.92
2022-10-11T14:55:24.401Z,38.60
2022-10-11T14:57:51.850Z,37.17
2022-10-11T15:00:20.872Z,35.03
2022-10-11T15:02:48.310Z,36.13
2022-10-11T15:05:15.822Z,34.58
2022-10-11T15:07:44.576Z,33.40
2022-10-11T15:10:17.980Z,33.92
2022-10-11T15:12:45.433Z,31.27
2022-10-11T15:15:19.351Z,31.58
2022-10-11T15:17:48.073Z,29.77
2022-10-11T15:20:19.843Z,29.70
2022-10-11T15:22:48.809Z,30.20
2022-10-11T15:25:16.453Z,29.17
2022-10-11T15:27:44.189Z,27.92
2022-10-11T15:30:18.524Z,26.02
2022-10-11T15:32:46.049Z,25.60
2022-10-11T15:35:13.580Z,28.00
2022-10-11T15:37:41.071Z,24.80
2022-10-11T15:40:21.079Z,24.20
2022-10-11T15:42:48.540Z,23.10
2022-10-11T15:45:16.016Z,23.33
2022-10-11T15:47:43.485Z,23.98
2022-10-11T15:50:18.778Z,22.80
2022-10-11T15:52:46.254Z,22.38
2022-10-11T15:55:13.690Z,21.08
2022-10-11T15:57:42.456Z,21.13
2022-10-11T16:00:10.818Z,20.33
2022-10-11T16:02:38.244Z,19.80
2022-10-11T16:05:06.398Z,19.42
2022-10-11T16:07:33.874Z,20.52
2022-10-11T16:10:01.303Z,18.40
2022-10-11T16:12:28.765Z,17.63
2022-10-11T16:15:00.665Z,17.33
2022-10-11T16:17:28.122Z,18.20
2022-10-11T16:19:57.350Z,16.92
2022-10-11T16:22:24.795Z,17.03
2022-10-11T16:24:52.226Z,16.42
2022-10-11T16:27:19.766Z,15.85
2022-10-11T16:29:47.228Z,14.93
2022-10-11T16:32:15.966Z,14.25
2022-10-11T16:34:43.412Z,14.50
2022-10-11T16:37:10.835Z,14.57
2022-10-11T16:39:38.285Z,13.75
2022-10-11T16:42:05.790Z,13.82
2022-10-11T16:44:33.440Z,13.80
2022-10-11T16:47:01.335Z,12.43
2022-10-11T16:49:30.106Z,12.40
2022-10-11T16:51:59.070Z,12.30
2022-10-11T16:54:27.971Z,11.13
2022-10-11T16:56:55.405Z,11.73
2022-10-11T16:59:22.844Z,11.63
2022-10-11T17:01:50.379Z,10.85
2022-10-11T17:04:17.822Z,11.05
2022-10-11T17:06:46.608Z,11.00
2022-10-11T17:09:14.431Z,10.07
2022-10-11T17:11:41.921Z,11.18
2022-10-11T17:14:09.444Z,9.52
2022-10-11T17:16:36.869Z,10.18
2022-10-11T17:19:04.342Z,9.70
2022-10-11T17:21:31.807Z,8.82
2022-10-11T17:24:00.582Z,8.45
2022-10-11T17:26:28.039Z,8.40
2022-10-11T17:28:55.704Z,9.32
2022-10-11T17:31:23.315Z,8.30
2022-10-11T17:33:50.824Z,7.82
2022-10-11T17:36:21.717Z,8.07
2022-10-11T17:38:49.219Z,8.40
2022-10-11T17:41:18.000Z,7.57
2022-10-11T17:43:45.427Z,7.90
2022-10-11T17:46:13.308Z,7.85
2022-10-11T17:48:40.821Z,7.43
2022-10-11T17:51:09.323Z,6.85
2022-10-11T17:53:36.980Z,7.00
2022-10-11T17:56:05.936Z,6.65
2022-10-11T17:58:34.757Z,6.90
2022-10-11T18:01:03.637Z,6.38
2022-10-11T18:03:31.497Z,6.13
2022-10-11T18:05:58.971Z,6.13
2022-10-11T18:08:26.421Z,6.45
2022-10-11T18:10:53.871Z,5.72
2022-10-11T18:13:21.293Z,5.72
2022-10-11T18:15:53.484Z,5.18
2022-10-11T18:18:21.143Z,5.70
2022-10-11T18:20:48.771Z,5.65
2022-10-11T18:23:17.627Z,5.15
2022-10-11T18:25:45.068Z,5.13
2022-10-11T18:28:12.725Z,5.20
2022-10-11T18:30:42.600Z,5.32
2022-10-11T18:33:11.374Z,5.30
2022-10-11T18:35:38.788Z,5.03
2022-10-11T18:38:06.392Z,5.05
2022-10-11T18:40:36.757Z,5.57
2022-10-11T18:43:04.275Z,4.70
2022-10-11T18:45:31.778Z,4.65
2022-10-11T18:47:59.214Z,4.57
2022-10-11T18:50:28.023Z,4.93
2022-10-11T18:52:55.512Z,4.93
2022-10-11T18:55:22.956Z,4.82
2022-10-11T18:57:50.516Z,4.53
2022-10-11T19:00:39.488Z,4.72
2022-10-11T19:03:05.729Z,4.93
2022-10-11T19:05:34.481Z,4.85
2022-10-11T19:08:01.913Z,4.88
2022-10-11T19:10:29.374Z,4.40
2022-10-11T19:12:56.822Z,4.10
2022-10-11T19:15:28.606Z,4.50
2022-10-11T19:17:56.406Z,3.90
2022-10-11T19:20:23.831Z,4.47
2022-10-11T19:22:52.729Z,4.00
2022-10-11T19:25:20.172Z,4.30
2022-10-11T19:27:47.614Z,3.53
2022-10-11T19:30:15.123Z,4.82
2022-10-11T19:32:42.553Z,4.28
2022-10-11T19:35:10.800Z,4.05
2022-10-11T19:37:38.244Z,3.85
2022-10-11T19:40:08.676Z,3.78
2022-10-11T19:42:36.118Z,3.83
2022-10-11T19:45:03.705Z,3.72
2022-10-11T19:47:31.545Z,3.92
2022-10-11T19:49:59.125Z,4.00
2022-10-11T19:52:26.666Z,3.70
2022-10-11T19:54:54.080Z,3.67
2022-10-11T19:57:22.865Z,3.95
2022-10-11T19:59:50.365Z,3.50
2022-10-11T20:02:17.818Z,3.55
2022-10-11T20:04:52.451Z,3.70
2022-10-11T20:07:20.585Z,3.70
2022-10-11T20:09:48.007Z,3.50
2022-10-11T20:12:15.456Z,3.60
2022-10-11T20:14:44.202Z,3.60
2022-10-11T20:17:11.639Z,3.22
2022-10-11T20:19:39.101Z,3.17
2022-10-11T20:22:06.600Z,3.53
2022-10-11T20:24:34.544Z,3.63
2022-10-11T20:27:03.322Z,3.22
2022-10-11T20:29:30.762Z,3.70
2022-10-11T20:31:59.732Z,3.63
2022-10-11T20:34:28.096Z,3.78
2022-10-11T20:36:55.578Z,3.70
2022-10-11T20:39:23.573Z,4.03
2022-10-11T20:41:51.056Z,3.92
2022-10-11T20:44:18.490Z,4.43
2022-10-11T20:46:45.910Z,4.57
2022-10-11T20:49:14.661Z,4.65
2022-10-11T20:51:42.510Z,5.05
2022-10-11T20:54:10.049Z,4.30
2022-10-11T20:56:37.538Z,4.35
2022-10-11T20:59:05.001Z,5.03
2022-10-11T21:01:33.240Z,5.00
2022-10-11T21:04:01.164Z,5.10
2022-10-11T21:06:30.300Z,5.20
2022-10-11T21:08:58.758Z,4.70
2022-10-11T21:11:26.475Z,4.30
2022-10-11T21:13:55.424Z,4.38
2022-10-11T21:16:22.883Z,4.63
2022-10-11T21:18:51.594Z,4.47
2022-10-11T21:21:19.020Z,4.40
2022-10-11T21:23:47.787Z,4.40
2022-10-11T21:26:16.651Z,4.38
2022-10-11T21:28:45.118Z,4.40
2022-10-11T21:31:13.564Z,4.40
2022-10-11T21:33:41.205Z,3.85
2022-10-11T21:36:09.790Z,4.10
2022-10-11T21:38:37.360Z,4.05
2022-10-11T21:41:06.285Z,4.00
2022-10-11T21:43:35.016Z,4.63
2022-10-11T21:46:09.260Z,3.72
2022-10-11T21:48:36.689Z,4.25
2022-10-11T21:51:04.191Z,4.28
2022-10-11T21:53:31.701Z,4.22
2022-10-11T21:55:59.139Z,3.60
2022-10-11T21:58:27.897Z,4.28
2022-10-11T22:00:55.460Z,3.95
2022-10-11T22:03:22.942Z,3.75
2022-10-11T22:05:50.371Z,4.25
2022-10-11T22:08:17.807Z,3.80
2022-10-11T22:10:45.470Z,3.72
2022-10-11T22:13:12.943Z,3.65
2022-10-11T22:15:41.889Z,3.60
2022-10-11T22:18:09.553Z,3.45
2022-10-11T22:20:37.137Z,3.70
2022-10-11T22:23:04.758Z,3.70
2022-10-11T22:25:32.382Z,3.22
2022-10-11T22:28:00.011Z,3.42
2022-10-11T22:30:27.484Z,3.35
2022-10-11T22:32:56.512Z,3.25
2022-10-11T22:35:24.047Z,2.97
2022-10-11T22:37:51.519Z,3.40
2022-10-11T22:40:19.147Z,3.30
2022-10-11T22:42:46.691Z,3.10
2022-10-11T22:45:14.166Z,3.08
2022-10-11T22:47:41.636Z,3.38
2022-10-11T22:50:10.679Z,3.20
2022-10-11T22:52:38.218Z,3.13
2022-10-11T22:55:06.358Z,3.30
2022-10-11T22:57:34.120Z,2.85
2022-10-11T23:00:01.782Z,2.85
2022-10-11T23:02:29.252Z,3.63
2022-10-11T23:04:58.238Z,3.25
2022-10-11T23:07:27.021Z,3.13
2022-10-11T23:09:54.530Z,3.08
2022-10-11T23:12:22.077Z,2.50
2022-10-11T23:14:49.544Z,2.95
2022-10-11T23:17:16.991Z,2.78
2022-10-11T23:19:44.453Z,2.90
2022-10-11T23:22:11.954Z,3.10
2022-10-11T23:24:40.730Z,2.97
2022-10-11T23:27:08.223Z,2.42
2022-10-11T23:29:35.712Z,2.60
2022-10-11T23:32:03.163Z,2.80
2022-10-11T23:34:30.646Z,2.38
2022-10-11T23:36:58.109Z,2.50
2022-10-11T23:39:25.558Z,2.80
2022-10-11T23:41:54.321Z,2.50
2022-10-11T23:44:21.815Z,2.53
2022-10-11T23:46:49.254Z,2.20
2022-10-11T23:49:16.717Z,2.53
2022-10-11T23:51:44.182Z,2.42
2022-10-11T23:54:11.861Z,2.40
2022-10-11T23:56:39.314Z,2.53
2022-10-11T23:59:08.099Z,2.58
